Terminal Aerodrome Forecast
Issued by NWS Missoula, MT

Home | Current Version | Previous Version | Text Only | Print | Product List | Glossary On
Versions: 1 2 3 4 5 6 7 8 9 10 11 12 13 14
000
FTUS45 KMSO 282006 AAA
TAFBTM
TAF AMD
KBTM 282006Z 2820/2918 22005KT P6SM VCSH OVC060
     FM282200 31010KT 3SM -SN BR SCT008 OVC025
     FM290400 33006KT 6SM -SN BR OVC030=

USA.gov is the U.S. government's official web portal to all federal, state and local government web resources and services.